sensor_id;sensor_type;location;lat;lon;timestamp;P1;durP1;ratioP1;P2;durP2;ratioP2
71902;SDS011;59778;50.310;18.780;2023-03-12T00:01:46;17.03;;;5.67;;
71902;SDS011;59778;50.310;18.780;2023-03-12T00:17:08;16.37;;;6.27;;
71902;SDS011;59778;50.310;18.780;2023-03-12T00:32:31;13.27;;;5.37;;
71902;SDS011;59778;50.310;18.780;2023-03-12T00:47:53;16.87;;;5.80;;
71902;SDS011;59778;50.310;18.780;2023-03-12T01:03:14;18.67;;;7.03;;
71902;SDS011;59778;50.310;18.780;2023-03-12T01:18:36;23.87;;;9.00;;
71902;SDS011;59778;50.310;18.780;2023-03-12T01:33:57;18.03;;;7.73;;
71902;SDS011;59778;50.310;18.780;2023-03-12T02:04:40;23.77;;;9.93;;
71902;SDS011;59778;50.310;18.780;2023-03-12T02:36:16;26.00;;;9.57;;
71902;SDS011;59778;50.310;18.780;2023-03-12T02:51:38;19.47;;;7.87;;
71902;SDS011;59778;50.310;18.780;2023-03-12T03:07:03;13.90;;;6.10;;
71902;SDS011;59778;50.310;18.780;2023-03-12T03:22:24;29.13;;;9.80;;
71902;SDS011;59778;50.310;18.780;2023-03-12T03:37:45;18.00;;;7.37;;
71902;SDS011;59778;50.310;18.780;2023-03-12T03:53:07;19.30;;;7.80;;
71902;SDS011;59778;50.310;18.780;2023-03-12T04:08:29;21.40;;;7.50;;
71902;SDS011;59778;50.310;18.780;2023-03-12T04:23:52;22.17;;;7.17;;
71902;SDS011;59778;50.310;18.780;2023-03-12T04:39:17;25.93;;;8.93;;
71902;SDS011;59778;50.310;18.780;2023-03-12T04:54:39;47.40;;;13.13;;
71902;SDS011;59778;50.310;18.780;2023-03-12T05:10:01;42.17;;;12.93;;
71902;SDS011;59778;50.310;18.780;2023-03-12T05:25:22;28.50;;;9.83;;
71902;SDS011;59778;50.310;18.780;2023-03-12T05:40:50;20.23;;;8.50;;
71902;SDS011;59778;50.310;18.780;2023-03-12T05:56:14;19.83;;;8.17;;
71902;SDS011;59778;50.310;18.780;2023-03-12T06:11:37;14.70;;;5.90;;
71902;SDS011;59778;50.310;18.780;2023-03-12T06:26:58;24.87;;;7.90;;
71902;SDS011;59778;50.310;18.780;2023-03-12T06:42:20;22.50;;;7.83;;
71902;SDS011;59778;50.310;18.780;2023-03-12T06:57:42;17.63;;;6.90;;
71902;SDS011;59778;50.310;18.780;2023-03-12T07:13:04;14.93;;;6.80;;
71902;SDS011;59778;50.310;18.780;2023-03-12T07:28:26;18.90;;;7.87;;
71902;SDS011;59778;50.310;18.780;2023-03-12T07:43:49;17.20;;;6.80;;
71902;SDS011;59778;50.310;18.780;2023-03-12T07:59:10;14.40;;;5.67;;
71902;SDS011;59778;50.310;18.780;2023-03-12T08:14:32;18.60;;;6.80;;
71902;SDS011;59778;50.310;18.780;2023-03-12T08:29:55;14.93;;;4.60;;
71902;SDS011;59778;50.310;18.780;2023-03-12T08:45:16;12.93;;;4.27;;
71902;SDS011;59778;50.310;18.780;2023-03-12T09:00:38;7.50;;;2.77;;
71902;SDS011;59778;50.310;18.780;2023-03-12T09:16:01;6.73;;;2.20;;
71902;SDS011;59778;50.310;18.780;2023-03-12T09:31:24;6.93;;;1.93;;
71902;SDS011;59778;50.310;18.780;2023-03-12T09:46:47;5.77;;;1.63;;
71902;SDS011;59778;50.310;18.780;2023-03-12T10:02:39;9.33;;;2.27;;
71902;SDS011;59778;50.310;18.780;2023-03-12T10:33:59;12.50;;;3.90;;
71902;SDS011;59778;50.310;18.780;2023-03-12T10:49:22;31.20;;;10.13;;
71902;SDS011;59778;50.310;18.780;2023-03-12T11:04:55;18.97;;;5.90;;
71902;SDS011;59778;50.310;18.780;2023-03-12T11:20:26;9.37;;;2.43;;
71902;SDS011;59778;50.310;18.780;2023-03-12T12:08:08;11.40;;;2.73;;
71902;SDS011;59778;50.310;18.780;2023-03-12T12:23:57;7.10;;;2.60;;
71902;SDS011;59778;50.310;18.780;2023-03-12T12:39:39;6.97;;;2.57;;
71902;SDS011;59778;50.310;18.780;2023-03-12T12:55:06;15.77;;;3.90;;
71902;SDS011;59778;50.310;18.780;2023-03-12T13:10:37;11.00;;;4.20;;
71902;SDS011;59778;50.310;18.780;2023-03-12T13:26:16;8.53;;;2.30;;
71902;SDS011;59778;50.310;18.780;2023-03-12T13:41:46;5.00;;;1.90;;
71902;SDS011;59778;50.310;18.780;2023-03-12T13:57:22;5.93;;;2.17;;
71902;SDS011;59778;50.310;18.780;2023-03-12T14:12:54;8.87;;;3.23;;
71902;SDS011;59778;50.310;18.780;2023-03-12T14:28:25;10.73;;;4.47;;
71902;SDS011;59778;50.310;18.780;2023-03-12T14:43:50;12.77;;;5.07;;
71902;SDS011;59778;50.310;18.780;2023-03-12T14:59:21;10.20;;;4.47;;
71902;SDS011;59778;50.310;18.780;2023-03-12T15:14:55;12.47;;;4.57;;
71902;SDS011;59778;50.310;18.780;2023-03-12T15:30:25;10.77;;;3.97;;
71902;SDS011;59778;50.310;18.780;2023-03-12T15:45:54;12.70;;;4.60;;
71902;SDS011;59778;50.310;18.780;2023-03-12T16:01:19;13.03;;;4.33;;
71902;SDS011;59778;50.310;18.780;2023-03-12T16:16:43;13.00;;;5.40;;
71902;SDS011;59778;50.310;18.780;2023-03-12T16:32:09;19.97;;;8.00;;
71902;SDS011;59778;50.310;18.780;2023-03-12T16:47:38;13.77;;;6.10;;
71902;SDS011;59778;50.310;18.780;2023-03-12T17:03:00;16.77;;;6.87;;
71902;SDS011;59778;50.310;18.780;2023-03-12T17:18:22;16.37;;;6.80;;
71902;SDS011;59778;50.310;18.780;2023-03-12T17:33:43;17.60;;;6.43;;
71902;SDS011;59778;50.310;18.780;2023-03-12T17:49:05;26.37;;;8.60;;
71902;SDS011;59778;50.310;18.780;2023-03-12T18:04:26;21.63;;;8.43;;
71902;SDS011;59778;50.310;18.780;2023-03-12T18:19:47;22.37;;;8.33;;
71902;SDS011;59778;50.310;18.780;2023-03-12T18:35:09;25.43;;;8.07;;
71902;SDS011;59778;50.310;18.780;2023-03-12T18:50:31;21.37;;;7.73;;
71902;SDS011;59778;50.310;18.780;2023-03-12T19:06:02;21.90;;;8.57;;
71902;SDS011;59778;50.310;18.780;2023-03-12T19:21:24;26.40;;;8.17;;
71902;SDS011;59778;50.310;18.780;2023-03-12T19:36:46;26.17;;;8.70;;
71902;SDS011;59778;50.310;18.780;2023-03-12T19:52:08;20.40;;;6.90;;
71902;SDS011;59778;50.310;18.780;2023-03-12T20:07:30;17.83;;;4.20;;
71902;SDS011;59778;50.310;18.780;2023-03-12T20:22:51;19.60;;;5.93;;
71902;SDS011;59778;50.310;18.780;2023-03-12T20:38:13;17.60;;;6.37;;
71902;SDS011;59778;50.310;18.780;2023-03-12T20:53:34;17.57;;;5.30;;
71902;SDS011;59778;50.310;18.780;2023-03-12T21:08:55;17.73;;;5.30;;
71902;SDS011;59778;50.310;18.780;2023-03-12T21:24:18;19.30;;;5.43;;
71902;SDS011;59778;50.310;18.780;2023-03-12T21:39:39;19.90;;;5.83;;
71902;SDS011;59778;50.310;18.780;2023-03-12T21:55:01;17.00;;;5.50;;
71902;SDS011;59778;50.310;18.780;2023-03-12T22:10:22;18.03;;;5.43;;
71902;SDS011;59778;50.310;18.780;2023-03-12T22:25:44;10.83;;;3.83;;
71902;SDS011;59778;50.310;18.780;2023-03-12T22:41:18;10.07;;;3.63;;
71902;SDS011;59778;50.310;18.780;2023-03-12T22:56:42;11.07;;;3.80;;
71902;SDS011;59778;50.310;18.780;2023-03-12T23:12:04;10.30;;;4.00;;
71902;SDS011;59778;50.310;18.780;2023-03-12T23:27:25;14.27;;;3.90;;
71902;SDS011;59778;50.310;18.780;2023-03-12T23:42:47;14.03;;;4.10;;
71902;SDS011;59778;50.310;18.780;2023-03-12T23:58:08;12.67;;;3.97;;
